Time;durP1;ratioP1;P1;durP2;ratioP2;P2;SDS_P1;SDS_P2;PMS_P1;PMS_P2;Temp;Humidity;BMP_temperature;BMP_pressure;BME280_temperature;BME280_humidity;BME280_pressure;Samples;Min_cycle;Max_cycle;Signal;HPM_P1;HPM_P2
2022/09/28 00:02:04;;;;;;;2.33;1.57;;;8.40;99.90;;;;;;5043120;28;20171;-62
2022/09/28 00:04:32;;;;;;;3.60;1.57;;;8.40;99.90;;;;;;5043816;28;20297;-63
2022/09/28 00:06:57;;;;;;;6.17;1.80;;;8.40;99.90;;;;;;5045287;28;20520;-61
2022/09/28 00:09:23;;;;;;;1.40;1.30;;;8.40;99.90;;;;;;5043726;28;20556;-61
2022/09/28 00:11:49;;;;;;;1.70;1.40;;;8.40;99.90;;;;;;5044321;28;20490;-62
2022/09/28 00:14:14;;;;;;;5.43;1.83;;;8.40;99.90;;;;;;5035859;28;20772;-62
2022/09/28 00:16:42;;;;;;;3.77;1.43;;;8.40;99.90;;;;;;5018643;28;20439;-62
2022/09/28 00:19:09;;;;;;;5.00;1.60;;;8.40;99.90;;;;;;5039831;28;20595;-62
2022/09/28 00:21:37;;;;;;;2.93;1.30;;;8.40;99.90;;;;;;5018483;28;20448;-62
2022/09/28 00:24:14;;;;;;;5.57;1.40;;;8.40;99.90;;;;;;5035356;28;20822;-60
2022/09/28 00:26:54;;;;;;;2.80;1.70;;;8.40;99.90;;;;;;5036063;28;20452;-60
2022/09/28 00:29:19;;;;;;;3.53;1.50;;;8.30;99.90;;;;;;5039585;28;20466;-61
2022/09/28 00:31:45;;;;;;;1.47;1.30;;;8.40;99.90;;;;;;5038793;28;20437;-60
2022/09/28 00:34:12;;;;;;;5.30;1.57;;;8.40;99.90;;;;;;5044270;28;20225;-61
2022/09/28 00:36:37;;;;;;;1.83;1.47;;;8.40;99.90;;;;;;5041163;28;20528;-58
2022/09/28 00:39:05;;;;;;;1.93;1.50;;;8.40;99.90;;;;;;5043650;28;20521;-61
2022/09/28 00:41:31;;;;;;;4.47;1.50;;;8.40;99.90;;;;;;5029594;28;21042;-62
2022/09/28 00:44:29;;;;;;;2.80;1.60;;;8.40;99.90;;;;;;5039923;28;20506;-61
2022/09/28 00:47:14;;;;;;;2.60;1.77;;;8.40;99.90;;;;;;5036141;28;20172;-62
2022/09/28 00:49:46;;;;;;;1.87;1.33;;;8.40;99.90;;;;;;5040400;28;20566;-64
2022/09/28 00:52:16;;;;;;;3.47;1.40;;;8.40;99.90;;;;;;5040047;28;20547;-61
2022/09/28 00:54:43;;;;;;;3.20;1.77;;;8.40;99.90;;;;;;5041460;28;20442;-59
2022/09/28 00:57:10;;;;;;;3.77;1.70;;;8.40;99.90;;;;;;5033036;28;20430;-61
2022/09/28 00:59:35;;;;;;;1.83;1.30;;;8.50;99.90;;;;;;5040411;28;20961;-61
2022/09/28 01:02:02;;;;;;;2.27;1.30;;;8.50;99.90;;;;;;5037920;28;20421;-61
2022/09/28 01:04:29;;;;;;;6.30;1.70;;;8.50;99.90;;;;;;5026285;28;20636;-62
2022/09/28 01:06:57;;;;;;;2.20;1.63;;;8.50;99.90;;;;;;5040409;28;20535;-61
2022/09/28 01:09:24;;;;;;;3.47;1.67;;;8.40;99.90;;;;;;5039912;28;20592;-60
2022/09/28 01:11:50;;;;;;;4.57;1.57;;;8.50;99.90;;;;;;5039138;28;20924;-60
2022/09/28 01:14:18;;;;;;;2.90;1.70;;;8.50;99.90;;;;;;5036860;28;20486;-60
2022/09/28 01:16:56;;;;;;;7.83;2.03;;;8.50;99.90;;;;;;5024141;28;20182;-60
2022/09/28 01:19:46;;;;;;;10.00;1.93;;;8.50;99.90;;;;;;5042473;28;20947;-62
2022/09/28 01:22:23;;;;;;;7.70;2.20;;;8.50;99.90;;;;;;5038109;28;20430;-63
2022/09/28 01:25:00;;;;;;;4.00;1.70;;;8.50;99.90;;;;;;5039159;28;20544;-60
2022/09/28 01:27:31;;;;;;;3.23;1.67;;;8.50;99.90;;;;;;5042041;28;20532;-63
2022/09/28 01:30:04;;;;;;;5.10;2.13;;;8.50;99.90;;;;;;5041233;28;20798;-60
2022/09/28 01:32:33;;;;;;;6.13;1.70;;;8.50;99.90;;;;;;5040561;28;20421;-60
2022/09/28 01:35:08;;;;;;;7.27;2.07;;;8.50;99.90;;;;;;5039815;28;20437;-62
2022/09/28 01:37:51;;;;;;;2.40;1.80;;;8.50;99.90;;;;;;5037404;28;20417;-61
2022/09/28 01:40:20;;;;;;;5.20;1.90;;;8.50;99.90;;;;;;5033911;28;20449;-58
2022/09/28 01:42:49;;;;;;;4.73;2.03;;;8.50;99.90;;;;;;5036280;28;20436;-61
2022/09/28 01:45:24;;;;;;;4.47;1.93;;;8.50;99.90;;;;;;5019911;28;20457;-60
2022/09/28 01:47:52;;;;;;;2.57;1.77;;;8.50;99.90;;;;;;5038216;28;20473;-61
2022/09/28 01:50:21;;;;;;;2.90;2.00;;;8.50;99.90;;;;;;5038901;28;20734;-59
2022/09/28 01:53:03;;;;;;;2.13;1.83;;;8.50;99.90;;;;;;5037599;28;20433;-60
2022/09/28 01:55:44;;;;;;;3.33;1.70;;;8.50;99.90;;;;;;5038533;28;20527;-61
2022/09/28 01:58:27;;;;;;;3.97;1.90;;;8.50;99.90;;;;;;5037210;28;20547;-62
2022/09/28 02:00:58;;;;;;;5.80;2.07;;;8.50;99.90;;;;;;5018831;28;20970;-63
2022/09/28 02:03:31;;;;;;;2.40;1.73;;;8.50;99.90;;;;;;5021036;28;20518;-61
2022/09/28 02:06:04;;;;;;;4.40;1.77;;;8.50;99.90;;;;;;5038258;28;20452;-59
2022/09/28 02:08:42;;;;;;;4.83;1.70;;;8.50;99.90;;;;;;5028798;28;20915;-62
2022/09/28 02:11:13;;;;;;;4.87;1.87;;;8.50;99.90;;;;;;5044478;28;20517;-61
2022/09/28 02:13:55;;;;;;;2.07;1.87;;;8.50;99.90;;;;;;5026052;28;20421;-61
2022/09/28 02:16:40;;;;;;;3.03;1.70;;;8.60;99.90;;;;;;5028656;28;20437;-61
2022/09/28 02:19:09;;;;;;;2.20;1.63;;;8.60;99.90;;;;;;5031849;28;20656;-62
2022/09/28 02:21:58;;;;;;;3.10;1.70;;;8.60;99.90;;;;;;5018728;28;20437;-61
2022/09/28 02:24:36;;;;;;;3.57;2.00;;;8.60;99.90;;;;;;5031853;28;21075;-61
2022/09/28 02:27:11;;;;;;;1.70;1.60;;;8.60;99.90;;;;;;5041565;28;20436;-60
2022/09/28 02:29:37;;;;;;;2.80;1.60;;;8.60;99.90;;;;;;5037513;28;20555;-61
2022/09/28 02:32:02;;;;;;;2.90;1.80;;;8.60;99.90;;;;;;5023246;28;20595;-58
2022/09/28 02:34:28;;;;;;;6.20;1.90;;;8.60;99.90;;;;;;5025721;28;20257;-61
2022/09/28 02:36:54;;;;;;;2.53;1.47;;;8.60;99.90;;;;;;5022972;28;20268;-60
2022/09/28 02:39:19;;;;;;;5.20;1.37;;;8.60;99.90;;;;;;5040816;28;20627;-61
2022/09/28 02:41:45;;;;;;;2.50;1.70;;;8.60;99.90;;;;;;5035168;28;20693;-60
2022/09/28 02:44:43;;;;;;;2.63;1.43;;;8.60;99.90;;;;;;5035988;28;20214;-62
2022/09/28 02:47:27;;;;;;;1.77;1.40;;;8.60;99.90;;;;;;5036477;28;20182;-63
2022/09/28 02:50:18;;;;;;;1.23;1.10;;;8.60;99.90;;;;;;5036828;28;20440;-61
2022/09/28 02:53:19;;;;;;;2.70;1.30;;;8.60;99.90;;;;;;5036446;28;20811;-61
2022/09/28 02:56:16;;;;;;;1.67;1.20;;;8.60;99.90;;;;;;5013271;28;20457;-62
2022/09/28 02:58:42;;;;;;;3.30;1.60;;;8.60;99.90;;;;;;5023504;28;20509;-60
2022/09/28 03:01:33;;;;;;;1.50;1.40;;;8.60;99.90;;;;;;5026815;28;20627;-59
2022/09/28 03:04:01;;;;;;;1.33;1.23;;;8.60;99.90;;;;;;5040911;28;20175;-59
2022/09/28 03:06:38;;;;;;;2.53;1.33;;;8.60;99.90;;;;;;5034819;28;20438;-61
2022/09/28 03:09:28;;;;;;;1.77;1.40;;;8.60;99.90;;;;;;5033759;28;20464;-63
2022/09/28 03:12:02;;;;;;;3.83;1.70;;;8.60;99.90;;;;;;5038147;28;20430;-61
2022/09/28 03:14:28;;;;;;;1.17;1.17;;;8.60;99.90;;;;;;5032100;28;20955;-63
2022/09/28 03:16:53;;;;;;;1.73;1.30;;;8.60;99.90;;;;;;5038506;28;20445;-60
2022/09/28 03:19:24;;;;;;;1.57;1.23;;;8.60;99.90;;;;;;5040474;28;20172;-62
2022/09/28 03:21:49;;;;;;;17.23;1.20;;;8.60;99.90;;;;;;5036405;28;20182;-60
2022/09/28 03:24:15;;;;;;;1.20;1.10;;;8.60;99.90;;;;;;5039803;28;20835;-60
2022/09/28 03:26:40;;;;;;;3.03;1.43;;;8.60;99.90;;;;;;5043435;28;20267;-58
2022/09/28 03:29:06;;;;;;;3.33;1.30;;;8.50;99.90;;;;;;5040351;28;20195;-62
2022/09/28 03:31:32;;;;;;;0.93;0.93;;;8.60;99.90;;;;;;5038947;28;20405;-62
2022/09/28 03:33:57;;;;;;;1.53;1.20;;;8.60;99.90;;;;;;5032892;28;20270;-62
2022/09/28 03:36:23;;;;;;;2.80;1.37;;;8.60;99.90;;;;;;5026848;28;20251;-61
2022/09/28 03:38:52;;;;;;;3.70;1.20;;;8.50;99.90;;;;;;5048573;28;20182;-60
2022/09/28 03:41:17;;;;;;;1.60;1.00;;;8.50;99.90;;;;;;5040944;28;20272;-62
2022/09/28 03:43:43;;;;;;;1.33;1.20;;;8.60;99.90;;;;;;5048025;28;20983;-60
2022/09/28 03:46:08;;;;;;;1.33;1.10;;;8.50;99.90;;;;;;5038895;28;20204;-63
2022/09/28 03:48:35;;;;;;;2.40;1.20;;;8.60;99.90;;;;;;5037075;28;20277;-62
2022/09/28 03:51:03;;;;;;;1.57;1.20;;;8.60;99.90;;;;;;5020644;28;20180;-60
2022/09/28 03:53:29;;;;;;;1.90;1.00;;;8.60;99.90;;;;;;5040180;28;20441;-59
2022/09/28 03:56:00;;;;;;;1.13;1.13;;;8.50;99.90;;;;;;5045850;28;20484;-60
2022/09/28 03:58:27;;;;;;;2.80;1.40;;;8.50;99.90;;;;;;5042259;28;20437;-60
2022/09/28 04:00:52;;;;;;;1.43;1.10;;;8.60;99.90;;;;;;5022721;28;20464;-62
2022/09/28 04:03:18;;;;;;;1.10;1.10;;;8.60;99.90;;;;;;5023743;28;20531;-60
2022/09/28 04:05:51;;;;;;;1.50;1.17;;;8.60;99.90;;;;;;5038508;28;20211;-61
2022/09/28 04:08:17;;;;;;;1.20;1.10;;;8.60;99.90;;;;;;5020085;28;20636;-60
2022/09/28 04:10:43;;;;;;;1.73;1.10;;;8.60;99.90;;;;;;5044243;28;20471;-60
2022/09/28 04:13:09;;;;;;;1.40;1.30;;;8.70;99.90;;;;;;5035478;28;20442;-60
2022/09/28 04:15:36;;;;;;;1.07;1.00;;;8.70;99.90;;;;;;5031022;28;20188;-59
2022/09/28 04:18:02;;;;;;;2.80;2.27;;;8.60;99.90;;;;;;5037087;28;20244;-60
2022/09/28 04:20:28;;;;;;;2.23;1.70;;;8.70;99.90;;;;;;5030894;28;20483;-60
2022/09/28 04:22:54;;;;;;;1.60;1.40;;;8.70;99.90;;;;;;5042367;28;20180;-60
2022/09/28 04:25:19;;;;;;;1.20;1.20;;;8.70;99.90;;;;;;5043982;28;20277;-59
2022/09/28 04:30:29;;;;;;;1.27;1.17;;;8.70;99.90;;;;;;5042238;28;20626;-59
2022/09/28 04:32:55;;;;;;;2.87;1.50;;;8.70;99.90;;;;;;5044588;28;20960;-60
2022/09/28 04:35:21;;;;;;;1.10;1.10;;;8.70;99.90;;;;;;5039676;28;20211;-58
2022/09/28 04:37:46;;;;;;;2.40;1.03;;;8.70;99.90;;;;;;5046192;28;20563;-60
2022/09/28 04:40:12;;;;;;;1.20;1.10;;;8.70;99.90;;;;;;5037542;28;20175;-60
2022/09/28 04:42:37;;;;;;;2.27;1.30;;;8.70;99.90;;;;;;5019884;28;20232;-59
2022/09/28 04:45:04;;;;;;;1.20;1.13;;;8.70;99.90;;;;;;5030167;28;20199;-60
2022/09/28 04:47:29;;;;;;;1.10;1.00;;;8.70;99.90;;;;;;5022020;28;20187;-61
2022/09/28 04:49:55;;;;;;;2.70;1.27;;;8.70;99.90;;;;;;5035564;28;20429;-62
2022/09/28 04:52:21;;;;;;;1.30;1.20;;;8.70;99.90;;;;;;5037178;28;20182;-62
2022/09/28 04:54:46;;;;;;;2.57;1.60;;;8.70;99.90;;;;;;5045824;28;20191;-61
2022/09/28 04:57:12;;;;;;;1.17;1.07;;;8.70;99.90;;;;;;5048058;28;20172;-61
2022/09/28 04:59:37;;;;;;;1.40;1.30;;;8.70;99.90;;;;;;5042479;28;20566;-61
2022/09/28 05:02:04;;;;;;;1.30;1.20;;;8.70;99.90;;;;;;5044401;28;20180;-62
2022/09/28 05:04:30;;;;;;;1.73;1.27;;;8.70;99.90;;;;;;5040355;28;20272;-64
2022/09/28 05:06:56;;;;;;;1.83;1.00;;;8.70;99.90;;;;;;5046414;28;20433;-62
2022/09/28 05:09:21;;;;;;;1.23;0.97;;;8.70;99.90;;;;;;5044732;28;20477;-61
2022/09/28 05:11:51;;;;;;;1.57;1.47;;;8.70;99.90;;;;;;5046181;28;20425;-62
2022/09/28 05:14:18;;;;;;;3.80;1.33;;;8.70;99.90;;;;;;5039838;28;20191;-61
2022/09/28 05:16:44;;;;;;;1.63;1.13;;;8.70;99.90;;;;;;5045731;28;20486;-63
2022/09/28 05:19:11;;;;;;;1.60;1.20;;;8.70;99.90;;;;;;5031149;28;20979;-62
2022/09/28 05:21:36;;;;;;;2.40;1.43;;;8.70;99.90;;;;;;5046607;28;20198;-64
2022/09/28 05:24:06;;;;;;;10.03;1.57;;;8.70;99.90;;;;;;5048736;28;20896;-63
2022/09/28 05:26:32;;;;;;;2.20;2.00;;;8.70;99.90;;;;;;5050621;23;20215;-66
2022/09/28 05:28:57;;;;;;;1.30;1.17;;;8.80;99.90;;;;;;5023616;28;20464;-67
2022/09/28 05:31:23;;;;;;;2.40;1.20;;;8.80;99.90;;;;;;5047065;28;20430;-67
2022/09/28 05:33:49;;;;;;;2.20;1.20;;;8.80;99.90;;;;;;5031655;28;20182;-66
2022/09/28 05:36:15;;;;;;;1.17;1.10;;;8.80;99.90;;;;;;5042531;28;20191;-66
2022/09/28 05:38:40;;;;;;;1.40;1.30;;;8.70;99.90;;;;;;5033008;28;20431;-66
2022/09/28 05:41:06;;;;;;;1.23;1.20;;;8.70;99.90;;;;;;5023805;28;20215;-65
2022/09/28 05:43:32;;;;;;;1.03;1.00;;;8.70;99.90;;;;;;5027783;28;20180;-65
2022/09/28 05:45:59;;;;;;;1.00;1.00;;;8.80;99.90;;;;;;5025033;28;20730;-67
2022/09/28 05:48:25;;;;;;;1.20;1.17;;;8.80;99.90;;;;;;5051195;28;20669;-65
2022/09/28 05:50:51;;;;;;;1.43;1.17;;;8.80;99.90;;;;;;5032730;28;20453;-65
2022/09/28 05:53:17;;;;;;;1.97;1.50;;;8.80;99.90;;;;;;5008323;28;20757;-65
2022/09/28 05:55:42;;;;;;;1.23;1.13;;;8.80;99.90;;;;;;5028912;28;20541;-66
2022/09/28 05:58:08;;;;;;;2.23;1.00;;;8.80;99.90;;;;;;5026917;28;20705;-66
2022/09/28 06:00:35;;;;;;;2.60;1.00;;;8.80;99.90;;;;;;5020078;28;20183;-65
2022/09/28 06:03:07;;;;;;;1.93;0.90;;;8.80;99.90;;;;;;5026381;28;20473;-66
2022/09/28 06:05:35;;;;;;;1.60;1.10;;;8.80;99.90;;;;;;5027459;28;20521;-65
2022/09/28 06:08:03;;;;;;;1.43;1.10;;;8.80;99.90;;;;;;5011776;28;20992;-66
2022/09/28 06:10:29;;;;;;;1.00;1.00;;;8.80;99.90;;;;;;5023714;28;20439;-66
2022/09/28 06:12:55;;;;;;;5.03;1.20;;;8.90;99.90;;;;;;5023156;28;20459;-66
2022/09/28 06:15:23;;;;;;;1.63;0.90;;;8.90;99.90;;;;;;5037397;28;20955;-66
2022/09/28 06:17:58;;;;;;;1.20;1.10;;;8.90;99.90;;;;;;5028827;28;20429;-65
2022/09/28 06:20:25;;;;;;;1.40;1.30;;;8.90;99.90;;;;;;5025830;28;21125;-65
2022/09/28 06:22:52;;;;;;;1.43;1.10;;;8.90;99.90;;;;;;5034228;28;20428;-65
2022/09/28 06:25:18;;;;;;;1.87;0.90;;;8.90;99.90;;;;;;5029041;28;20470;-66
2022/09/28 06:27:53;;;;;;;1.53;1.10;;;8.90;99.90;;;;;;5027617;28;20458;-64
2022/09/28 06:30:19;;;;;;;1.10;1.00;;;8.90;99.90;;;;;;5025267;28;20180;-65
2022/09/28 06:32:44;;;;;;;1.03;1.00;;;8.90;99.90;;;;;;5027866;28;20453;-65
2022/09/28 06:35:10;;;;;;;3.33;1.10;;;8.90;99.90;;;;;;5027239;28;20673;-65
2022/09/28 06:37:35;;;;;;;1.40;1.30;;;8.90;99.90;;;;;;5028028;28;20187;-65
2022/09/28 06:40:01;;;;;;;1.20;1.10;;;9.00;99.90;;;;;;5019562;28;20187;-70
2022/09/28 06:42:26;;;;;;;2.63;1.33;;;9.00;99.90;;;;;;5011239;28;20196;-65
2022/09/28 06:44:52;;;;;;;2.60;1.20;;;9.00;99.90;;;;;;5023905;28;20186;-65
2022/09/28 06:47:18;;;;;;;1.77;1.60;;;9.00;99.90;;;;;;5030663;28;20183;-65
2022/09/28 06:49:44;;;;;;;2.53;1.63;;;9.00;99.90;;;;;;5028819;28;20207;-64
2022/09/28 06:52:10;;;;;;;1.60;1.40;;;9.00;99.90;;;;;;5022781;28;20172;-65
2022/09/28 06:54:36;;;;;;;1.57;1.40;;;9.10;99.90;;;;;;5028360;28;20485;-65
2022/09/28 06:57:02;;;;;;;1.30;1.20;;;9.10;99.90;;;;;;5029911;28;20188;-65
2022/09/28 06:59:28;;;;;;;1.30;1.20;;;9.10;99.90;;;;;;5022627;28;20188;-64
2022/09/28 07:01:54;;;;;;;3.77;1.57;;;9.10;99.90;;;;;;5032460;28;20171;-64
2022/09/28 07:04:20;;;;;;;1.67;1.00;;;9.10;99.90;;;;;;5026747;28;20487;-65
2022/09/28 07:06:46;;;;;;;1.00;1.00;;;9.10;99.90;;;;;;5023993;28;20196;-65
2022/09/28 07:09:12;;;;;;;4.30;1.20;;;9.10;99.90;;;;;;5027842;28;20219;-65
2022/09/28 07:11:38;;;;;;;1.20;1.10;;;9.10;99.90;;;;;;5032452;28;20528;-66
2022/09/28 07:14:05;;;;;;;0.90;0.90;;;9.20;99.90;;;;;;5032476;28;20215;-65
2022/09/28 07:16:30;;;;;;;0.90;0.90;;;9.20;99.90;;;;;;5010044;28;20474;-66
2022/09/28 07:18:56;;;;;;;4.17;1.07;;;9.20;99.90;;;;;;5019292;28;20835;-66
2022/09/28 07:21:22;;;;;;;1.53;1.37;;;9.20;99.90;;;;;;5032363;28;20191;-64
2022/09/28 07:23:48;;;;;;;0.90;0.90;;;9.20;99.90;;;;;;5023693;28;20176;-65
2022/09/28 07:26:14;;;;;;;1.00;0.90;;;9.20;99.90;;;;;;5027488;28;20229;-66
2022/09/28 07:28:41;;;;;;;2.93;0.97;;;9.30;99.90;;;;;;5031793;28;20458;-65
2022/09/28 07:31:08;;;;;;;1.20;0.90;;;9.30;99.90;;;;;;5023682;28;20426;-66
2022/09/28 07:33:34;;;;;;;1.30;1.20;;;9.30;99.90;;;;;;5026550;28;20448;-66
2022/09/28 07:36:01;;;;;;;1.93;1.00;;;9.30;99.90;;;;;;5004382;28;21080;-64
2022/09/28 07:38:27;;;;;;;3.30;1.10;;;9.20;99.90;;;;;;5025123;28;20283;-64
2022/09/28 07:41:15;;;;;;;3.80;1.00;;;9.20;99.90;;;;;;5029279;28;20538;-65
2022/09/28 07:43:41;;;;;;;3.77;1.10;;;9.10;99.90;;;;;;5027505;28;20188;-64
2022/09/28 07:46:10;;;;;;;1.30;1.20;;;9.10;99.90;;;;;;5027521;28;20454;-65
2022/09/28 07:48:40;;;;;;;1.63;1.20;;;9.10;99.90;;;;;;5028046;28;20210;-65
2022/09/28 07:51:06;;;;;;;3.37;1.37;;;9.10;99.90;;;;;;5024048;28;20432;-64
2022/09/28 07:53:32;;;;;;;1.83;1.07;;;9.10;99.90;;;;;;5043585;28;20458;-65
2022/09/28 07:56:06;;;;;;;2.93;1.10;;;9.00;99.90;;;;;;5033877;28;20489;-64
2022/09/28 07:58:33;;;;;;;1.50;1.07;;;9.00;99.90;;;;;;5028642;28;20509;-64
2022/09/28 08:01:03;;;;;;;4.03;1.10;;;9.00;99.90;;;;;;5021322;28;20434;-64
2022/09/28 08:03:29;;;;;;;3.30;1.90;;;9.00;99.90;;;;;;5031076;28;20964;-64
2022/09/28 08:05:59;;;;;;;1.67;1.47;;;9.00;99.90;;;;;;5031847;28;20453;-64
2022/09/28 08:08:25;;;;;;;1.47;1.23;;;9.00;99.90;;;;;;5034054;28;20199;-64
2022/09/28 08:10:51;;;;;;;2.30;1.43;;;9.00;99.90;;;;;;5021993;28;20474;-64
2022/09/28 08:13:18;;;;;;;1.83;1.30;;;9.00;99.90;;;;;;5027773;28;20799;-64
2022/09/28 08:15:47;;;;;;;3.23;1.37;;;9.00;99.90;;;;;;5026208;28;20537;-63
2022/09/28 08:18:13;;;;;;;4.80;1.50;;;9.00;99.90;;;;;;5022733;28;20703;-64
2022/09/28 08:23:23;;;;;;;1.77;1.43;;;9.00;99.90;;;;;;5029112;28;20437;-64
2022/09/28 08:25:52;;;;;;;1.20;1.10;;;9.10;99.90;;;;;;5029589;28;20466;-64
2022/09/28 08:28:19;;;;;;;2.60;1.43;;;9.10;99.90;;;;;;5017410;28;20199;-64
2022/09/28 08:30:46;;;;;;;2.80;1.30;;;9.10;99.90;;;;;;5031494;28;20929;-64
2022/09/28 08:33:13;;;;;;;1.80;1.40;;;9.10;99.90;;;;;;5028343;28;20505;-64
2022/09/28 08:35:42;;;;;;;4.50;1.47;;;9.20;99.90;;;;;;5021073;28;20485;-64
2022/09/28 08:38:08;;;;;;;4.70;1.60;;;9.20;99.90;;;;;;5027774;28;20529;-63
2022/09/28 08:40:40;;;;;;;4.07;1.50;;;9.10;99.90;;;;;;5024139;28;20852;-65
2022/09/28 08:43:25;;;;;;;3.60;1.60;;;9.20;99.90;;;;;;5031884;28;20433;-64
2022/09/28 08:45:51;;;;;;;2.80;1.60;;;9.20;99.90;;;;;;5012089;28;20468;-65
2022/09/28 08:51:14;;;;;;;3.00;1.47;;;9.10;99.90;;;;;;5023294;28;20438;-64
2022/09/28 08:54:04;;;;;;;1.80;1.57;;;9.10;99.90;;;;;;5007077;28;20521;-64
2022/09/28 08:57:25;;;;;;;7.17;2.03;;;9.10;99.90;;;;;;5021979;28;20459;-64
2022/09/28 08:59:54;;;;;;;2.13;1.50;;;9.10;99.90;;;;;;4976512;28;20438;-64
2022/09/28 09:02:38;;;;;;;2.97;2.00;;;9.10;99.90;;;;;;5023819;28;20458;-64
2022/09/28 09:05:09;;;;;;;4.40;1.30;;;9.10;99.90;;;;;;5021076;28;20435;-63
2022/09/28 09:07:54;;;;;;;1.73;1.50;;;9.10;99.90;;;;;;5027227;28;20476;-63
2022/09/28 09:10:52;;;;;;;3.50;1.60;;;9.10;99.90;;;;;;5019076;28;20438;-63
2022/09/28 09:13:30;;;;;;;4.80;2.10;;;9.10;99.90;;;;;;5018096;28;20521;-64
2022/09/28 09:15:58;;;;;;;2.97;1.40;;;9.00;99.90;;;;;;5025843;28;20807;-63
2022/09/28 09:18:39;;;;;;;2.53;1.70;;;9.10;99.90;;;;;;5027535;28;20510;-63
2022/09/28 09:21:14;;;;;;;2.67;1.80;;;9.10;99.90;;;;;;5007911;28;20434;-64
2022/09/28 09:23:48;;;;;;;3.73;1.83;;;9.10;99.90;;;;;;5003742;28;20449;-63
2022/09/28 09:26:19;;;;;;;2.77;1.70;;;9.10;99.90;;;;;;5023941;28;20460;-64
2022/09/28 09:29:26;;;;;;;3.90;2.10;;;9.10;99.90;;;;;;5019876;28;20470;-64
2022/09/28 09:32:07;;;;;;;4.73;1.90;;;9.20;99.90;;;;;;4990645;28;20438;-64
2022/09/28 09:34:54;;;;;;;3.97;1.67;;;9.20;99.90;;;;;;5022218;28;20453;-63
2022/09/28 09:37:47;;;;;;;3.20;1.30;;;9.20;99.90;;;;;;5009368;28;20529;-64
2022/09/28 09:40:37;;;;;;;1.53;1.40;;;9.20;99.90;;;;;;5027627;28;20441;-64
2022/09/28 09:43:24;;;;;;;2.93;1.87;;;9.30;99.90;;;;;;5026356;28;20452;-64
2022/09/28 09:46:10;;;;;;;4.83;1.90;;;9.30;99.90;;;;;;5025579;28;20466;-63
2022/09/28 09:48:39;;;;;;;5.30;3.27;;;9.30;99.90;;;;;;5021893;28;20466;-63
2022/09/28 09:51:26;;;;;;;5.40;2.17;;;9.30;99.90;;;;;;5025763;28;20429;-63
2022/09/28 09:53:59;;;;;;;2.10;1.90;;;9.40;99.90;;;;;;5016307;28;20963;-63
2022/09/28 09:56:42;;;;;;;2.80;1.80;;;9.40;99.90;;;;;;5026652;28;20476;-64
2022/09/28 09:59:14;;;;;;;2.60;1.90;;;9.40;99.90;;;;;;5021062;28;20976;-63
2022/09/28 10:01:40;;;;;;;2.40;1.80;;;9.50;99.90;;;;;;5026014;28;20445;-62
2022/09/28 10:04:29;;;;;;;5.20;2.03;;;9.50;99.90;;;;;;5021375;28;20445;-63
2022/09/28 10:07:00;;;;;;;5.00;2.20;;;9.50;99.90;;;;;;5019294;28;20454;-63
2022/09/28 10:09:29;;;;;;;3.67;1.60;;;9.50;99.90;;;;;;5016412;28;20528;-63
2022/09/28 10:11:55;;;;;;;2.10;1.60;;;9.60;99.90;;;;;;5023538;28;20439;-64
2022/09/28 10:14:23;;;;;;;2.30;1.40;;;9.60;99.90;;;;;;5021435;28;20939;-63
2022/09/28 10:16:52;;;;;;;2.43;1.30;;;9.60;99.90;;;;;;5005186;28;20457;-64
2022/09/28 10:19:20;;;;;;;2.80;1.30;;;9.50;99.90;;;;;;5023373;28;20439;-63
2022/09/28 10:21:50;;;;;;;1.33;1.23;;;9.50;99.90;;;;;;5027173;28;20542;-64
2022/09/28 10:24:33;;;;;;;1.70;1.30;;;9.40;99.90;;;;;;5037681;28;20426;-65
2022/09/28 10:27:10;;;;;;;2.57;1.40;;;9.40;99.90;;;;;;5022792;28;20477;-64
2022/09/28 10:29:52;;;;;;;4.00;1.60;;;9.30;99.90;;;;;;5024154;28;20480;-61
2022/09/28 10:32:45;;;;;;;3.17;1.50;;;9.30;99.90;;;;;;5020987;28;20916;-60
2022/09/28 10:35:17;;;;;;;1.93;1.50;;;9.30;99.90;;;;;;5015818;28;20483;-61
2022/09/28 10:38:16;;;;;;;4.53;1.50;;;9.30;99.90;;;;;;5024409;28;20434;-62
2022/09/28 10:40:48;;;;;;;5.27;2.20;;;9.30;99.90;;;;;;5023139;28;20476;-62
2022/09/28 10:43:28;;;;;;;2.43;1.73;;;9.30;99.90;;;;;;5015712;28;20438;-62
2022/09/28 10:46:09;;;;;;;6.03;2.00;;;9.40;99.90;;;;;;4998835;28;20476;-62
2022/09/28 10:48:59;;;;;;;5.90;1.97;;;9.40;99.90;;;;;;5019288;28;20477;-63
2022/09/28 10:51:45;;;;;;;4.63;2.27;;;9.50;99.90;;;;;;5016347;28;20550;-64
2022/09/28 10:54:20;;;;;;;2.80;2.20;;;9.50;99.90;;;;;;5022865;28;20430;-64
2022/09/28 10:56:46;;;;;;;2.97;1.60;;;9.60;99.90;;;;;;5023687;28;20453;-65
2022/09/28 10:59:27;;;;;;;3.30;2.27;;;9.60;99.90;;;;;;5015839;28;20534;-64
2022/09/28 11:02:27;;;;;;;1.87;1.77;;;9.60;99.90;;;;;;5008225;28;20445;-65
2022/09/28 11:04:58;;;;;;;3.57;2.40;;;9.60;99.90;;;;;;5019032;28;20834;-65
2022/09/28 11:07:27;;;;;;;2.30;1.90;;;9.60;99.90;;;;;;5008907;28;20525;-64
2022/09/28 11:09:55;;;;;;;2.47;1.80;;;9.60;99.90;;;;;;5016557;28;20524;-62
2022/09/28 11:12:23;;;;;;;1.83;1.60;;;9.60;99.90;;;;;;5018327;28;20597;-61
2022/09/28 11:15:16;;;;;;;4.60;2.20;;;9.60;99.90;;;;;;5019127;28;20524;-62
2022/09/28 11:17:43;;;;;;;2.03;1.70;;;9.50;99.90;;;;;;5017378;28;20442;-62
2022/09/28 11:20:23;;;;;;;2.60;2.00;;;9.50;99.90;;;;;;5021212;28;20430;-62
2022/09/28 11:22:53;;;;;;;4.10;1.90;;;9.50;99.90;;;;;;5023136;28;20501;-62
2022/09/28 11:27:50;;;;;;;7.10;2.60;;;9.50;99.90;;;;;;5002305;28;20460;-59
2022/09/28 11:30:26;;;;;;;5.77;2.87;;;9.40;99.90;;;;;;5008185;28;20432;-59
2022/09/28 11:32:55;;;;;;;3.80;2.30;;;9.50;99.90;;;;;;5005202;28;20453;-59
2022/09/28 11:35:53;;;;;;;2.93;2.03;;;9.50;99.90;;;;;;5004159;28;20439;-59
2022/09/28 11:38:47;;;;;;;3.70;2.23;;;9.50;99.90;;;;;;4998144;28;20895;-60
2022/09/28 11:41:19;;;;;;;2.67;2.10;;;9.50;99.90;;;;;;4985728;28;20438;-60
2022/09/28 11:44:09;;;;;;;1.73;1.50;;;9.50;99.90;;;;;;5006694;28;21006;-61
2022/09/28 11:46:49;;;;;;;7.13;1.93;;;9.50;99.90;;;;;;5004030;28;20455;-60
2022/09/28 11:49:40;;;;;;;5.50;2.00;;;9.50;99.90;;;;;;5002017;28;20454;-60
2022/09/28 11:52:23;;;;;;;3.20;1.97;;;9.50;99.90;;;;;;5002555;28;20524;-59
2022/09/28 11:55:16;;;;;;;3.33;2.20;;;9.50;99.90;;;;;;5006627;28;20470;-59
2022/09/28 11:57:47;;;;;;;5.93;2.03;;;9.50;99.90;;;;;;4999799;28;20470;-60
2022/09/28 12:00:20;;;;;;;5.63;1.50;;;9.50;99.90;;;;;;5000448;28;20423;-61
2022/09/28 12:02:57;;;;;;;2.73;1.70;;;9.50;99.90;;;;;;5003078;28;20493;-60
2022/09/28 12:05:33;;;;;;;3.53;2.77;;;9.50;99.90;;;;;;5008900;28;20481;-61
2022/09/28 12:08:07;;;;;;;7.87;3.53;;;9.40;99.90;;;;;;4999842;28;20468;-59
2022/09/28 12:10:46;;;;;;;5.43;3.17;;;9.40;99.90;;;;;;5009839;28;20423;-60
2022/09/28 12:13:18;;;;;;;6.03;3.70;;;9.30;99.90;;;;;;5003707;28;20497;-58
2022/09/28 12:15:55;;;;;;;4.63;3.20;;;9.30;99.90;;;;;;5005967;28;20443;-61
2022/09/28 12:18:25;;;;;;;3.80;2.10;;;9.30;99.90;;;;;;5004993;28;20431;-60
2022/09/28 12:21:00;;;;;;;2.27;2.07;;;9.30;99.90;;;;;;5007588;28;20928;-60
2022/09/28 12:23:38;;;;;;;2.40;2.20;;;9.40;99.90;;;;;;5006319;28;20430;-61
2022/09/28 12:26:34;;;;;;;1.70;1.60;;;9.30;99.90;;;;;;5008995;28;20471;-58
2022/09/28 12:29:05;;;;;;;2.10;1.60;;;9.30;99.90;;;;;;4985321;28;20479;-60
2022/09/28 12:31:33;;;;;;;3.50;1.63;;;9.30;99.90;;;;;;5012942;28;20427;-60
2022/09/28 12:34:01;;;;;;;2.80;2.10;;;9.20;99.90;;;;;;5012474;28;20440;-60
2022/09/28 12:36:51;;;;;;;2.83;1.93;;;9.20;99.90;;;;;;5005441;28;20455;-59
2022/09/28 12:39:50;;;;;;;2.70;2.03;;;9.30;99.90;;;;;;4993609;28;20966;-59
2022/09/28 12:42:27;;;;;;;3.53;2.10;;;9.30;99.90;;;;;;5000969;28;21003;-58
2022/09/28 12:45:07;;;;;;;2.87;2.23;;;9.30;99.90;;;;;;5016450;28;20512;-59
2022/09/28 12:47:45;;;;;;;1.83;1.70;;;9.30;99.90;;;;;;5007278;28;20442;-61
2022/09/28 12:50:29;;;;;;;4.03;2.17;;;9.30;99.90;;;;;;4997931;28;20813;-58
2022/09/28 12:53:18;;;;;;;2.17;1.80;;;9.30;99.90;;;;;;4997848;28;20434;-59
2022/09/28 12:56:23;;;;;;;3.03;1.67;;;9.20;99.90;;;;;;5002385;28;20479;-59
2022/09/28 12:58:52;;;;;;;5.50;1.50;;;9.20;99.90;;;;;;5008662;28;20981;-59
2022/09/28 13:01:43;;;;;;;2.67;1.67;;;9.20;99.90;;;;;;5006047;28;22221;-62
2022/09/28 13:04:42;;;;;;;2.20;2.00;;;9.10;99.90;;;;;;5004307;28;20816;-61
2022/09/28 13:07:15;;;;;;;6.77;1.80;;;9.10;99.90;;;;;;4999990;28;20559;-62
2022/09/28 13:09:58;;;;;;;2.60;2.00;;;9.10;99.90;;;;;;5004710;28;20470;-60
2022/09/28 13:12:40;;;;;;;2.30;2.10;;;9.10;99.90;;;;;;5001686;28;20427;-60
2022/09/28 13:15:30;;;;;;;2.40;1.83;;;9.10;99.90;;;;;;5000934;28;20435;-59
2022/09/28 13:18:02;;;;;;;2.07;1.73;;;9.00;99.90;;;;;;5008056;28;20428;-60
2022/09/28 13:20:52;;;;;;;2.50;1.60;;;9.00;99.90;;;;;;5005584;28;20481;-59
2022/09/28 13:23:29;;;;;;;2.73;1.80;;;9.00;99.90;;;;;;5005931;28;20985;-59
2022/09/28 13:26:18;;;;;;;1.47;1.30;;;9.00;99.90;;;;;;5005416;28;20462;-61
2022/09/28 13:28:45;;;;;;;3.00;2.53;;;8.90;99.90;;;;;;4998901;28;20478;-59
2022/09/28 13:31:16;;;;;;;4.90;2.90;;;8.90;99.90;;;;;;5003533;28;20526;-62
2022/09/28 13:33:44;;;;;;;6.33;2.60;;;8.90;99.90;;;;;;5005502;28;20766;-59
2022/09/28 13:36:27;;;;;;;5.83;2.87;;;8.90;99.90;;;;;;5000685;28;20447;-59
2022/09/28 13:38:58;;;;;;;2.93;2.50;;;8.90;99.90;;;;;;5001911;28;20443;-61